Time;durP1;ratioP1;P1;durP2;ratioP2;P2;SDS_P1;SDS_P2;PMS_P1;PMS_P2;Temp;Humidity;BMP_temperature;BMP_pressure;BME280_temperature;BME280_humidity;BME280_pressure;Samples;Min_cycle;Max_cycle;Signal;HPM_P1;HPM_P2
2021/09/04 00:02:05;;;;;;;9.25;7.20;;;12.70;99.90;;;;;;4999066;28;20054;-73
2021/09/04 00:04:31;;;;;;;44.65;26.02;;;12.60;99.90;;;;;;4985643;28;20054;-75
2021/09/04 00:06:58;;;;;;;10.45;6.60;;;12.60;99.90;;;;;;4979326;28;20031;-74
2021/09/04 00:09:24;;;;;;;9.43;7.07;;;12.60;99.90;;;;;;4980086;28;20055;-73
2021/09/04 00:11:51;;;;;;;8.50;6.45;;;12.60;99.90;;;;;;4981459;28;20058;-73
2021/09/04 00:14:19;;;;;;;10.40;7.80;;;12.60;99.90;;;;;;4991956;28;20488;-76
2021/09/04 00:16:46;;;;;;;10.15;7.07;;;12.60;99.90;;;;;;4981136;28;20035;-76
2021/09/04 00:19:12;;;;;;;11.70;8.02;;;12.60;99.90;;;;;;4987756;28;20039;-74
2021/09/04 00:21:39;;;;;;;9.93;7.35;;;12.60;99.90;;;;;;4992780;28;20030;-74
2021/09/04 00:24:05;;;;;;;11.25;7.80;;;12.60;99.90;;;;;;4993782;28;20500;-75
2021/09/04 00:26:31;;;;;;;9.15;6.95;;;12.60;99.90;;;;;;4977367;28;20038;-75
2021/09/04 00:28:58;;;;;;;9.93;7.75;;;12.50;99.90;;;;;;4988299;28;20131;-75
2021/09/04 00:31:24;;;;;;;9.05;7.90;;;12.40;99.90;;;;;;4977565;28;20405;-75
2021/09/04 00:33:51;;;;;;;10.15;7.72;;;12.40;99.90;;;;;;4978313;28;20473;-75
2021/09/04 00:36:17;;;;;;;12.27;7.55;;;12.40;99.90;;;;;;4978386;28;20043;-75
2021/09/04 00:38:43;;;;;;;10.55;7.80;;;12.50;99.90;;;;;;4978194;28;20401;-75
2021/09/04 00:41:09;;;;;;;10.02;7.28;;;12.50;99.90;;;;;;4994833;28;20195;-75
2021/09/04 00:43:35;;;;;;;11.10;7.93;;;12.60;99.90;;;;;;4988875;28;20034;-72
2021/09/04 00:46:09;;;;;;;11.00;7.70;;;12.60;99.90;;;;;;5001939;28;20027;-75
2021/09/04 00:48:35;;;;;;;9.77;7.30;;;12.60;99.90;;;;;;4994355;28;20045;-75
2021/09/04 00:51:02;;;;;;;10.95;7.63;;;12.60;99.90;;;;;;4996526;28;20023;-75
2021/09/04 00:53:29;;;;;;;12.98;7.43;;;12.50;99.90;;;;;;5003511;28;20030;-74
2021/09/04 00:55:57;;;;;;;10.73;6.75;;;12.50;99.90;;;;;;4996675;28;20031;-76
2021/09/04 00:58:24;;;;;;;11.75;7.82;;;12.50;99.90;;;;;;4995479;28;20047;-76
2021/09/04 01:00:54;;;;;;;11.38;7.60;;;12.50;99.90;;;;;;4987847;28;20045;-75
2021/09/04 01:03:21;;;;;;;9.82;7.13;;;12.50;99.90;;;;;;4981809;28;20034;-76
2021/09/04 01:05:50;;;;;;;16.90;8.77;;;12.40;99.90;;;;;;4981383;28;20034;-75
2021/09/04 01:08:17;;;;;;;9.32;7.20;;;12.40;99.90;;;;;;4959921;28;20488;-75
2021/09/04 01:10:44;;;;;;;11.02;8.27;;;12.40;99.90;;;;;;4975919;28;20039;-74
2021/09/04 01:13:13;;;;;;;11.63;8.32;;;12.30;99.90;;;;;;4982887;28;20050;-75
2021/09/04 01:15:39;;;;;;;9.43;7.03;;;12.30;99.90;;;;;;4975634;28;20038;-74
2021/09/04 01:18:05;;;;;;;10.05;7.97;;;12.20;99.90;;;;;;4976135;28;20041;-75
2021/09/04 01:20:32;;;;;;;9.82;7.68;;;12.00;99.90;;;;;;4975579;28;20142;-74
2021/09/04 01:22:59;;;;;;;11.63;8.90;;;11.90;99.90;;;;;;4989212;28;20035;-76
2021/09/04 01:25:29;;;;;;;11.02;8.32;;;11.90;99.90;;;;;;4983078;28;20046;-75
2021/09/04 01:28:04;;;;;;;10.40;8.17;;;11.90;99.90;;;;;;4976311;28;20089;-75
2021/09/04 01:30:30;;;;;;;10.38;8.45;;;11.80;99.90;;;;;;4975445;28;20364;-75
2021/09/04 01:32:57;;;;;;;11.75;8.75;;;11.80;99.90;;;;;;4975835;28;20034;-75
2021/09/04 01:35:26;;;;;;;11.55;9.45;;;12.00;99.90;;;;;;4980447;28;20354;-75
2021/09/04 01:37:53;;;;;;;12.98;8.85;;;12.10;99.90;;;;;;4993495;28;20383;-74
2021/09/04 01:40:19;;;;;;;12.18;8.90;;;12.00;99.90;;;;;;4982261;28;20043;-75
2021/09/04 01:42:47;;;;;;;11.05;9.07;;;12.00;99.90;;;;;;4986345;28;20045;-75
2021/09/04 01:45:14;;;;;;;13.93;9.25;;;12.00;99.90;;;;;;4984192;28;20053;-75
2021/09/04 01:47:40;;;;;;;11.20;8.75;;;11.90;99.90;;;;;;4983112;28;20047;-75
2021/09/04 01:50:09;;;;;;;12.90;8.85;;;11.90;99.90;;;;;;4983586;28;20035;-75
2021/09/04 01:52:37;;;;;;;12.00;8.70;;;11.90;99.90;;;;;;4974958;28;20074;-74
2021/09/04 01:55:04;;;;;;;10.73;9.15;;;12.00;99.90;;;;;;4977509;28;20460;-75
2021/09/04 01:57:31;;;;;;;11.10;8.98;;;12.00;99.90;;;;;;4992308;28;20041;-74
2021/09/04 01:59:57;;;;;;;1999.90;999.90;;;12.00;99.90;;;;;;4976763;28;20043;-75
2021/09/04 02:02:23;;;;;;;11.43;7.68;;;12.00;99.90;;;;;;4978277;28;20029;-75
2021/09/04 02:04:49;;;;;;;33.95;10.52;;;11.90;99.90;;;;;;4990768;28;20499;-74
2021/09/04 02:07:15;;;;;;;0.40;0.40;;;11.90;99.90;;;;;;4974525;28;20026;-76
2021/09/04 02:09:42;;;;;;;0.10;0.10;;;12.00;99.90;;;;;;4974533;28;20035;-75
2021/09/04 02:12:08;;;;;;;0.20;0.20;;;11.90;99.90;;;;;;4974448;28;20023;-75
2021/09/04 02:14:34;;;;;;;0.15;0.15;;;11.90;99.90;;;;;;4980671;28;20192;-75
2021/09/04 02:17:00;;;;;;;0.10;0.10;;;11.80;99.90;;;;;;4992260;28;20435;-75
2021/09/04 02:19:27;;;;;;;0.10;0.10;;;11.60;99.90;;;;;;4974202;28;20073;-75
2021/09/04 02:21:54;;;;;;;0.10;0.10;;;11.50;99.90;;;;;;4993413;28;20042;-75
2021/09/04 02:24:20;;;;;;;0.10;0.10;;;11.50;99.90;;;;;;4977615;28;20053;-75
2021/09/04 02:26:47;;;;;;;0.10;0.10;;;11.60;99.90;;;;;;4992204;28;20046;-76
2021/09/04 02:29:13;;;;;;;0.10;0.10;;;11.60;99.90;;;;;;4989841;28;20054;-75
2021/09/04 02:31:40;;;;;;;0.15;0.15;;;11.60;99.90;;;;;;4973418;28;20043;-75
2021/09/04 02:34:07;;;;;;;0.20;0.20;;;11.50;99.90;;;;;;4984135;28;20062;-75
2021/09/04 02:36:33;;;;;;;0.20;0.20;;;11.50;99.90;;;;;;4992624;28;20081;-72
2021/09/04 02:38:59;;;;;;;0.20;0.20;;;11.50;99.90;;;;;;4973347;28;20039;-73
2021/09/04 02:41:26;;;;;;;0.20;0.20;;;11.50;99.90;;;;;;4974007;28;20055;-74
2021/09/04 02:43:53;;;;;;;0.20;0.20;;;11.50;99.90;;;;;;4974774;28;20046;-73
2021/09/04 02:46:20;;;;;;;0.20;0.20;;;11.60;99.90;;;;;;4974066;28;20050;-73
2021/09/04 02:48:47;;;;;;;0.20;0.20;;;11.60;99.90;;;;;;4988931;28;20483;-73
2021/09/04 02:51:13;;;;;;;1.10;1.10;;;11.60;99.90;;;;;;4974549;28;20050;-75
2021/09/04 02:53:39;;;;;;;0.40;0.40;;;11.70;99.90;;;;;;4974261;28;20058;-74
2021/09/04 02:56:06;;;;;;;0.30;0.30;;;11.60;99.90;;;;;;4983751;28;20049;-74
2021/09/04 02:58:32;;;;;;;0.28;0.28;;;11.50;99.90;;;;;;4981544;28;20038;-73
2021/09/04 03:00:59;;;;;;;0.22;0.22;;;11.40;99.90;;;;;;4974298;28;20061;-73
2021/09/04 03:03:27;;;;;;;0.20;0.20;;;11.40;99.90;;;;;;4985893;28;20049;-74
2021/09/04 03:05:53;;;;;;;0.30;0.30;;;11.30;99.90;;;;;;4974159;28;20043;-74
2021/09/04 03:08:19;;;;;;;0.30;0.30;;;11.30;99.90;;;;;;4974454;28;20065;-74
2021/09/04 03:10:46;;;;;;;0.20;0.20;;;11.20;99.90;;;;;;4981450;28;20477;-74
2021/09/04 03:13:13;;;;;;;0.20;0.20;;;11.20;99.90;;;;;;4973983;28;20027;-74
2021/09/04 03:15:39;;;;;;;0.25;0.25;;;11.10;99.90;;;;;;4987106;28;20050;-75
2021/09/04 03:18:06;;;;;;;0.20;0.20;;;11.10;99.90;;;;;;4999003;28;20054;-76
2021/09/04 03:20:33;;;;;;;0.20;0.20;;;11.10;99.90;;;;;;4997344;28;20430;-74
2021/09/04 03:23:00;;;;;;;0.20;0.20;;;11.20;99.90;;;;;;4977628;28;20361;-74
2021/09/04 03:25:27;;;;;;;0.20;0.20;;;11.10;99.90;;;;;;4979878;28;20038;-74
2021/09/04 03:27:55;;;;;;;0.20;0.20;;;11.10;99.90;;;;;;4981800;28;20062;-74
2021/09/04 03:30:22;;;;;;;0.20;0.20;;;11.00;99.90;;;;;;4974350;28;20049;-74
2021/09/04 03:32:48;;;;;;;0.20;0.20;;;11.00;99.90;;;;;;4989580;28;20472;-74
2021/09/04 03:35:15;;;;;;;0.20;0.20;;;11.00;99.90;;;;;;4981934;28;20046;-74
2021/09/04 03:37:41;;;;;;;0.20;0.20;;;10.90;99.90;;;;;;4973810;28;20046;-74
2021/09/04 03:40:09;;;;;;;0.20;0.20;;;11.00;99.90;;;;;;4973676;28;20074;-74
2021/09/04 03:42:35;;;;;;;0.30;0.30;;;11.00;99.90;;;;;;4973966;28;20051;-74
2021/09/04 03:45:02;;;;;;;0.30;0.30;;;11.00;99.90;;;;;;4974585;28;20046;-74
2021/09/04 03:47:30;;;;;;;0.40;0.40;;;11.00;99.90;;;;;;4973911;28;20051;-74
2021/09/04 03:49:56;;;;;;;0.40;0.40;;;10.90;99.90;;;;;;4976814;28;20473;-74
2021/09/04 03:52:24;;;;;;;0.40;0.40;;;10.80;99.90;;;;;;4978087;28;20022;-75
2021/09/04 03:54:50;;;;;;;0.40;0.40;;;10.70;99.90;;;;;;4988481;28;20034;-74
2021/09/04 03:57:17;;;;;;;0.40;0.40;;;10.70;99.90;;;;;;4994460;28;20047;-74
2021/09/04 03:59:43;;;;;;;0.47;0.47;;;10.70;99.90;;;;;;4993936;28;20046;-74
2021/09/04 04:02:10;;;;;;;0.50;0.50;;;10.70;99.90;;;;;;4994225;28;20050;-74
2021/09/04 04:04:37;;;;;;;0.52;0.52;;;10.60;99.90;;;;;;4985218;28;20030;-74
2021/09/04 04:07:04;;;;;;;0.77;0.77;;;10.60;99.90;;;;;;4993811;28;20042;-74
2021/09/04 04:09:30;;;;;;;1.00;1.00;;;10.50;99.90;;;;;;4977023;28;20058;-74
2021/09/04 04:11:57;;;;;;;0.70;0.70;;;10.50;99.90;;;;;;4994066;28;20534;-74
2021/09/04 04:14:24;;;;;;;0.70;0.70;;;10.50;99.90;;;;;;4981757;28;20051;-74
2021/09/04 04:16:50;;;;;;;4.50;4.30;;;10.50;99.90;;;;;;4976662;28;20491;-74
2021/09/04 04:19:16;;;;;;;40.45;39.05;;;10.40;99.90;;;;;;4994775;28;20042;-74
2021/09/04 04:21:43;;;;;;;1999.90;999.90;;;10.40;99.90;;;;;;4994360;28;20042;-74
2021/09/04 04:24:10;;;;;;;1999.90;999.90;;;10.40;99.90;;;;;;4976802;28;20061;-74
2021/09/04 04:26:37;;;;;;;1999.90;999.90;;;10.40;99.90;;;;;;4976446;28;20035;-73
2021/09/04 04:29:03;;;;;;;1999.90;999.90;;;10.40;99.90;;;;;;4977003;28;20062;-74
2021/09/04 04:31:30;;;;;;;1999.90;999.90;;;10.40;99.90;;;;;;4976753;28;20047;-74
2021/09/04 04:33:56;;;;;;;1999.90;999.90;;;10.40;99.90;;;;;;4976400;28;20037;-74
2021/09/04 04:36:23;;;;;;;1999.90;999.90;;;10.30;99.90;;;;;;4990814;28;20456;-74
2021/09/04 04:38:49;;;;;;;1999.90;999.90;;;10.30;99.90;;;;;;4982866;28;20062;-74
2021/09/04 04:41:16;;;;;;;1999.90;999.90;;;10.40;99.90;;;;;;4994904;28;20054;-74
2021/09/04 04:43:43;;;;;;;1999.90;999.90;;;10.40;99.90;;;;;;4992053;28;20054;-74
2021/09/04 04:46:09;;;;;;;1999.90;999.90;;;10.40;99.90;;;;;;4986435;28;20046;-75
2021/09/04 04:48:39;;;;;;;1999.90;999.90;;;10.40;99.90;;;;;;4977733;28;20043;-74
2021/09/04 04:51:05;;;;;;;1999.90;999.90;;;10.40;99.90;;;;;;4971363;28;20034;-74
2021/09/04 04:53:32;;;;;;;1999.90;999.90;;;10.30;99.90;;;;;;4975878;28;20130;-73
2021/09/04 04:56:02;;;;;;;1999.90;999.90;;;10.30;99.90;;;;;;4993302;28;20034;-74
2021/09/04 04:58:29;;;;;;;1999.90;999.90;;;10.20;99.90;;;;;;4977744;28;20046;-74
2021/09/04 05:00:56;;;;;;;1999.90;999.90;;;10.20;99.90;;;;;;4987604;28;20488;-74
2021/09/04 05:03:22;;;;;;;1999.90;999.90;;;10.30;99.90;;;;;;4982241;28;20046;-74
2021/09/04 05:05:49;;;;;;;1999.90;999.90;;;10.40;99.90;;;;;;4975918;28;20058;-74
2021/09/04 05:08:15;;;;;;;1999.90;999.90;;;10.40;99.90;;;;;;4976898;28;20125;-74
2021/09/04 05:10:43;;;;;;;1999.90;999.90;;;10.40;99.90;;;;;;4986329;28;20400;-74
2021/09/04 05:13:09;;;;;;;1999.90;999.90;;;10.50;99.90;;;;;;4988031;28;20042;-75
2021/09/04 05:15:37;;;;;;;1999.90;999.90;;;10.50;99.90;;;;;;4995396;28;20039;-73
2021/09/04 05:18:03;;;;;;;1999.90;999.90;;;10.50;99.90;;;;;;4995133;28;20037;-73
2021/09/04 05:20:30;;;;;;;1999.90;999.90;;;10.60;99.90;;;;;;4994346;28;20043;-74
2021/09/04 05:22:56;;;;;;;1999.90;999.90;;;10.60;99.90;;;;;;4981521;28;20042;-74
2021/09/04 05:25:23;;;;;;;1999.90;999.90;;;10.70;99.90;;;;;;4994578;28;20376;-74
2021/09/04 05:27:49;;;;;;;1999.90;999.90;;;10.70;99.90;;;;;;4992942;28;20046;-75
2021/09/04 05:30:15;;;;;;;1999.90;999.90;;;10.80;99.90;;;;;;4984738;28;20038;-74
2021/09/04 05:32:41;;;;;;;1999.90;999.90;;;11.40;99.90;;;;;;4981151;28;20033;-74
2021/09/04 05:35:08;;;;;;;1999.90;999.90;;;12.40;99.90;;;;;;4993491;28;20515;-74
2021/09/04 05:37:34;;;;;;;10.10;7.88;;;13.20;99.90;;;;;;4986452;28;20380;-73
2021/09/04 05:40:00;;;;;;;68.53;20.02;;;13.80;99.90;;;;;;4975466;28;20405;-75
2021/09/04 05:42:26;;;;;;;11.00;7.95;;;14.40;99.90;;;;;;4975339;28;20046;-74
2021/09/04 05:44:53;;;;;;;1999.90;999.90;;;15.00;99.90;;;;;;4982435;28;20061;-74
2021/09/04 05:47:19;;;;;;;10.07;6.80;;;15.70;99.90;;;;;;4975310;28;20039;-75
2021/09/04 05:49:45;;;;;;;9.75;7.50;;;16.60;99.40;;;;;;4974984;28;20045;-75
2021/09/04 05:52:11;;;;;;;9.15;6.70;;;17.00;97.30;;;;;;4975613;28;20034;-75
2021/09/04 05:54:37;;;;;;;10.52;8.02;;;17.20;96.20;;;;;;4973403;28;20046;-74
2021/09/04 05:57:04;;;;;;;8.43;6.70;;;17.10;95.90;;;;;;4975687;28;20035;-77
2021/09/04 05:59:30;;;;;;;8.80;7.03;;;17.50;94.90;;;;;;4991869;28;20065;-75
2021/09/04 06:01:56;;;;;;;10.27;7.82;;;18.20;93.70;;;;;;4974999;28;20077;-75
2021/09/04 06:04:22;;;;;;;9.98;7.10;;;18.70;92.10;;;;;;4975141;28;20472;-75
2021/09/04 06:06:49;;;;;;;8.88;6.88;;;18.30;91.70;;;;;;4974926;28;20047;-75
2021/09/04 06:09:15;;;;;;;10.07;6.65;;;18.10;92.10;;;;;;4983836;28;20042;-75
2021/09/04 06:11:41;;;;;;;9.73;7.13;;;18.80;91.00;;;;;;4985174;28;20039;-75
2021/09/04 06:14:09;;;;;;;10.27;6.82;;;19.20;89.40;;;;;;4978337;28;20126;-75
2021/09/04 06:16:35;;;;;;;8.60;7.13;;;19.20;89.00;;;;;;4989014;28;20472;-74
2021/09/04 06:19:01;;;;;;;9.38;7.85;;;19.40;88.40;;;;;;4973459;28;20481;-76
2021/09/04 06:21:28;;;;;;;9.52;7.53;;;18.90;90.00;;;;;;4974744;28;20576;-75
2021/09/04 06:23:54;;;;;;;12.55;7.85;;;18.30;91.30;;;;;;4973105;28;20046;-76
2021/09/04 06:26:20;;;;;;;12.35;8.35;;;17.90;92.40;;;;;;4974186;28;20027;-73
2021/09/04 06:28:46;;;;;;;10.20;7.20;;;18.00;92.00;;;;;;4974471;28;20043;-74
2021/09/04 06:31:12;;;;;;;9.70;8.10;;;18.20;92.20;;;;;;4974720;28;20487;-74
2021/09/04 06:33:38;;;;;;;9.10;7.63;;;18.30;92.10;;;;;;4981656;28;20378;-74
2021/09/04 06:36:05;;;;;;;9.43;7.82;;;18.00;92.10;;;;;;4974871;28;20051;-74
2021/09/04 06:38:31;;;;;;;10.63;9.32;;;17.90;92.80;;;;;;4983830;28;20498;-75
2021/09/04 06:40:57;;;;;;;10.48;8.27;;;17.90;93.10;;;;;;4991333;28;20042;-74
2021/09/04 06:43:23;;;;;;;11.48;6.95;;;18.10;93.40;;;;;;4989599;28;20026;-74
2021/09/04 06:45:49;;;;;;;10.10;7.40;;;18.70;92.10;;;;;;4973828;28;20034;-75
2021/09/04 06:48:16;;;;;;;9.70;8.10;;;19.30;90.70;;;;;;4988659;28;20034;-75
2021/09/04 06:50:42;;;;;;;9.55;8.20;;;19.50;90.10;;;;;;4992787;28;20042;-77
2021/09/04 06:53:08;;;;;;;11.30;8.43;;;19.10;90.50;;;;;;4988056;28;20480;-74
2021/09/04 06:55:34;;;;;;;10.20;8.38;;;19.20;90.40;;;;;;4983106;28;20031;-75
2021/09/04 06:58:00;;;;;;;11.77;7.15;;;19.00;90.50;;;;;;4991298;28;20053;-75
2021/09/04 07:00:26;;;;;;;9.73;7.93;;;18.90;91.10;;;;;;4992396;28;20038;-75
2021/09/04 07:02:53;;;;;;;11.70;7.88;;;18.40;91.10;;;;;;4979962;28;20049;-74
2021/09/04 07:05:19;;;;;;;8.73;7.60;;;18.70;91.00;;;;;;4975930;28;20046;-74
2021/09/04 07:07:45;;;;;;;10.40;8.10;;;19.10;90.30;;;;;;4983003;28;20046;-75
2021/09/04 07:10:12;;;;;;;9.35;7.22;;;19.30;89.70;;;;;;4983017;28;20141;-76
2021/09/04 07:12:38;;;;;;;9.85;7.50;;;19.00;90.00;;;;;;4976580;28;20069;-74
2021/09/04 07:15:05;;;;;;;10.15;7.30;;;19.60;89.00;;;;;;4974958;28;20034;-74
2021/09/04 07:17:31;;;;;;;9.63;7.57;;;19.60;87.90;;;;;;4984321;28;20032;-76
2021/09/04 07:19:58;;;;;;;8.77;7.15;;;19.10;90.60;;;;;;4995235;28;20043;-76
2021/09/04 07:22:24;;;;;;;10.23;8.25;;;19.10;89.40;;;;;;4982960;28;20042;-76
2021/09/04 07:24:50;;;;;;;9.27;7.25;;;19.30;88.60;;;;;;4976413;28;20109;-76
2021/09/04 07:27:17;;;;;;;8.52;7.72;;;19.00;89.50;;;;;;4977770;28;20091;-77
2021/09/04 07:29:43;;;;;;;7.43;5.88;;;19.00;90.00;;;;;;4989064;28;20059;-75
2021/09/04 07:32:09;;;;;;;8.90;6.10;;;19.20;89.50;;;;;;4987898;28;20033;-75
2021/09/04 07:34:35;;;;;;;8.18;6.97;;;19.90;87.30;;;;;;4977477;28;20039;-75
2021/09/04 07:37:02;;;;;;;10.43;6.70;;;20.30;85.60;;;;;;4990571;28;20037;-76
2021/09/04 07:39:28;;;;;;;8.65;7.15;;;20.40;86.10;;;;;;4989986;28;20043;-76
2021/09/04 07:41:54;;;;;;;7.60;6.85;;;20.30;84.10;;;;;;4998871;28;20384;-76
2021/09/04 07:44:20;;;;;;;7.50;5.75;;;20.20;84.30;;;;;;4981629;28;20034;-76
2021/09/04 07:46:46;;;;;;;10.20;6.50;;;20.90;82.70;;;;;;4977852;28;20027;-76
2021/09/04 07:49:13;;;;;;;8.30;5.50;;;20.90;82.10;;;;;;4976390;28;20504;-74
2021/09/04 07:51:39;;;;;;;8.23;6.10;;;20.00;83.60;;;;;;4987368;28;20038;-75
2021/09/04 07:54:05;;;;;;;8.00;6.43;;;19.50;86.50;;;;;;4978155;28;20026;-76
2021/09/04 07:56:31;;;;;;;10.05;6.38;;;20.10;85.90;;;;;;4977547;28;20034;-75
2021/09/04 07:58:57;;;;;;;7.28;5.80;;;20.20;84.80;;;;;;4977059;28;20031;-75
2021/09/04 08:01:24;;;;;;;7.53;6.43;;;20.20;86.60;;;;;;4989021;28;20054;-76
2021/09/04 08:03:50;;;;;;;9.15;6.40;;;21.00;82.20;;;;;;4994924;28;20046;-75
2021/09/04 08:06:16;;;;;;;6.97;5.30;;;21.40;79.30;;;;;;4986526;28;20062;-75
2021/09/04 08:08:42;;;;;;;7.38;6.03;;;20.90;81.40;;;;;;4977143;28;20042;-74
2021/09/04 08:11:09;;;;;;;8.60;5.88;;;20.60;82.40;;;;;;4977651;28;20489;-74
2021/09/04 08:13:35;;;;;;;8.82;6.22;;;21.10;80.00;;;;;;4977409;28;20389;-77
2021/09/04 08:16:01;;;;;;;7.70;5.68;;;20.40;81.60;;;;;;4987391;28;20034;-75
2021/09/04 08:18:27;;;;;;;7.90;5.93;;;20.70;82.60;;;;;;4976668;28;20027;-75
2021/09/04 08:20:53;;;;;;;8.00;5.78;;;21.60;78.80;;;;;;4976528;28;20042;-74
2021/09/04 08:23:19;;;;;;;6.88;5.40;;;21.40;78.40;;;;;;4976594;28;20027;-75
2021/09/04 08:25:46;;;;;;;8.40;5.97;;;20.90;80.10;;;;;;4978194;28;20046;-75
2021/09/04 08:28:12;;;;;;;8.45;6.05;;;20.90;80.70;;;;;;4985128;28;20380;-75
2021/09/04 08:30:39;;;;;;;7.57;5.88;;;21.00;81.00;;;;;;4983697;28;20038;-74
2021/09/04 08:33:05;;;;;;;6.47;5.22;;;22.60;76.70;;;;;;4978306;28;20495;-77
2021/09/04 08:35:32;;;;;;;7.57;5.75;;;23.80;71.80;;;;;;4993989;28;20054;-77
2021/09/04 08:37:59;;;;;;;7.25;5.57;;;23.20;72.30;;;;;;4994476;28;20026;-76
2021/09/04 08:40:25;;;;;;;7.53;5.45;;;23.10;73.50;;;;;;4993388;28;20053;-75
2021/09/04 08:42:52;;;;;;;6.10;5.03;;;23.30;72.10;;;;;;4992935;28;20023;-75
2021/09/04 08:45:18;;;;;;;8.35;5.00;;;23.30;72.00;;;;;;4993175;28;20026;-75
2021/09/04 08:47:47;;;;;;;5.97;4.97;;;23.30;70.20;;;;;;4994108;28;20042;-74
2021/09/04 08:50:13;;;;;;;5.90;4.70;;;23.00;71.80;;;;;;4994410;28;20026;-75
2021/09/04 08:52:40;;;;;;;6.70;4.95;;;24.00;69.80;;;;;;4993459;28;20026;-74
2021/09/04 08:55:07;;;;;;;5.72;4.50;;;23.60;68.80;;;;;;4991360;28;20042;-76
2021/09/04 08:57:33;;;;;;;6.30;4.65;;;23.30;70.30;;;;;;4979996;28;20047;-77
2021/09/04 09:00:01;;;;;;;5.47;4.63;;;24.00;68.40;;;;;;4975941;28;20365;-73
2021/09/04 09:02:28;;;;;;;5.15;4.57;;;24.70;66.00;;;;;;4993556;28;20037;-75
2021/09/04 09:05:06;;;;;;;5.22;4.53;;;25.70;65.20;;;;;;4989203;28;20031;-75
2021/09/04 09:07:44;;;;;;;78.15;8.40;;;26.40;62.30;;;;;;4976065;28;20042;-76
2021/09/04 09:10:22;;;;;;;7.25;4.85;;;25.60;63.80;;;;;;4976461;28;20062;-75
2021/09/04 09:12:52;;;;;;;6.85;4.68;;;24.20;66.00;;;;;;4975777;28;20023;-75
2021/09/04 09:15:22;;;;;;;1525.40;771.55;;;23.90;67.50;;;;;;4975847;28;20027;-76
2021/09/04 09:18:07;;;;;;;1999.90;999.90;;;23.60;68.70;;;;;;4984426;28;20034;-75
2021/09/04 09:20:34;;;;;;;1999.90;999.90;;;24.20;67.00;;;;;;4983836;28;20384;-74
2021/09/04 09:23:16;;;;;;;1999.90;999.90;;;24.90;64.90;;;;;;4975392;28;20035;-77
2021/09/04 09:25:43;;;;;;;1999.90;999.90;;;23.90;66.90;;;;;;4987667;28;20451;-75
2021/09/04 09:28:17;;;;;;;1999.90;999.90;;;24.00;65.90;;;;;;4975396;28;20333;-74
2021/09/04 09:30:59;;;;;;;1999.90;999.90;;;24.50;66.00;;;;;;4983424;28;20046;-75
2021/09/04 09:33:27;;;;;;;1999.90;999.90;;;24.30;64.40;;;;;;4992776;28;20050;-76
2021/09/04 09:35:56;;;;;;;1999.90;999.90;;;24.90;64.20;;;;;;4982232;28;20054;-77
2021/09/04 09:38:28;;;;;;;1999.90;999.90;;;25.00;65.60;;;;;;4978618;28;20099;-76
2021/09/04 09:40:55;;;;;;;1999.90;999.90;;;26.00;62.90;;;;;;4986352;28;20054;-76
2021/09/04 09:43:24;;;;;;;25.77;24.30;;;26.00;60.80;;;;;;4989599;28;20571;-75
2021/09/04 09:45:56;;;;;;;36.67;33.83;;;25.30;63.50;;;;;;4991995;28;20025;-76
2021/09/04 09:48:33;;;;;;;79.55;76.28;;;25.40;65.30;;;;;;5020874;28;20037;-77
2021/09/04 09:51:02;;;;;;;215.70;207.40;;;25.40;63.30;;;;;;4997811;28;20034;-79
2021/09/04 09:53:29;;;;;;;36.97;34.90;;;24.00;65.30;;;;;;4987370;28;20050;-77
2021/09/04 09:55:58;;;;;;;91.30;87.60;;;23.50;66.90;;;;;;4975201;28;20421;-77
2021/09/04 09:58:25;;;;;;;26.85;25.35;;;23.60;66.60;;;;;;4989825;28;20030;-77
2021/09/04 10:00:54;;;;;;;10.85;9.88;;;23.90;64.90;;;;;;4993017;28;20049;-76
2021/09/04 10:03:23;;;;;;;28.45;26.98;;;24.10;65.10;;;;;;4993802;28;20046;-77
2021/09/04 10:05:50;;;;;;;64.50;61.47;;;24.00;65.80;;;;;;4984383;28;20038;-77
2021/09/04 10:08:19;;;;;;;290.50;224.20;;;24.00;65.40;;;;;;4975643;28;20041;-77
2021/09/04 10:10:46;;;;;;;15.70;14.50;;;23.70;66.40;;;;;;4982827;28;20081;-79
2021/09/04 10:13:13;;;;;;;21.80;20.58;;;23.60;66.60;;;;;;4994720;28;20285;-76
2021/09/04 10:15:46;;;;;;;98.15;94.38;;;23.50;67.20;;;;;;4994850;28;20034;-74
2021/09/04 10:18:14;;;;;;;106.13;102.10;;;23.50;67.60;;;;;;4977016;28;20027;-77
2021/09/04 10:20:41;;;;;;;1999.90;999.90;;;23.40;66.40;;;;;;4981067;28;20046;-77
2021/09/04 10:23:30;;;;;;;649.28;391.05;;;23.40;66.60;;;;;;4996545;28;20046;-77
2021/09/04 10:26:28;;;;;;;1999.90;999.90;;;23.30;66.80;;;;;;4981711;28;20041;-77
2021/09/04 10:29:01;;;;;;;1999.90;999.90;;;23.50;67.70;;;;;;4982341;28;20035;-76
2021/09/04 10:31:53;;;;;;;1999.90;999.90;;;23.70;65.90;;;;;;4991807;28;20047;-76
2021/09/04 10:35:04;;;;;;;1999.90;999.90;;;23.90;65.20;;;;;;4975892;28;20038;-77
2021/09/04 10:37:30;;;;;;;1999.90;999.90;;;24.00;65.90;;;;;;4974665;28;20054;-77
2021/09/04 10:40:07;;;;;;;1999.90;999.90;;;24.60;63.70;;;;;;4984312;28;20429;-76
2021/09/04 10:42:40;;;;;;;1999.90;999.90;;;24.60;62.40;;;;;;4982189;28;20031;-77
2021/09/04 10:45:14;;;;;;;9.35;5.00;;;24.30;63.20;;;;;;4993023;28;20503;-76
2021/09/04 10:48:22;;;;;;;6.28;4.80;;;24.50;63.70;;;;;;4992704;28;20407;-75
2021/09/04 10:51:02;;;;;;;8.23;7.53;;;24.60;64.20;;;;;;5005934;28;20065;-78
2021/09/04 10:53:46;;;;;;;64.55;61.75;;;24.40;64.00;;;;;;4977321;28;20053;-77
2021/09/04 10:56:18;;;;;;;63.15;60.58;;;24.40;63.50;;;;;;4977434;28;20039;-78
2021/09/04 10:58:44;;;;;;;41.03;39.22;;;24.30;63.70;;;;;;4977562;28;20057;-76
2021/09/04 11:01:16;;;;;;;8.50;7.80;;;24.20;64.90;;;;;;4978076;28;20050;-75
2021/09/04 11:03:57;;;;;;;8.60;7.95;;;24.20;63.30;;;;;;4977411;28;20042;-77
2021/09/04 11:06:25;;;;;;;5.35;3.70;;;24.60;62.60;;;;;;4978808;28;20388;-77
2021/09/04 11:08:53;;;;;;;6.45;4.70;;;24.80;61.70;;;;;;4976950;28;20050;-76
2021/09/04 11:11:37;;;;;;;4.53;3.60;;;25.10;60.60;;;;;;4982990;28;20047;-76
2021/09/04 11:14:23;;;;;;;6.05;3.70;;;25.20;60.60;;;;;;4988582;28;20448;-79
2021/09/04 11:16:54;;;;;;;5.43;4.10;;;25.20;61.00;;;;;;4995386;28;20026;-77
2021/09/04 11:19:33;;;;;;;6.05;4.45;;;25.00;61.40;;;;;;4985865;28;20053;-78
2021/09/04 11:22:10;;;;;;;5.32;3.88;;;25.10;61.20;;;;;;4977551;28;20058;-77
2021/09/04 11:24:41;;;;;;;6.03;3.60;;;25.10;60.70;;;;;;4977371;28;20046;-75
2021/09/04 11:27:16;;;;;;;5.97;4.05;;;25.00;61.80;;;;;;4993004;28;20058;-76
2021/09/04 11:29:47;;;;;;;6.93;4.13;;;25.20;60.90;;;;;;4976534;28;20034;-77
2021/09/04 11:32:16;;;;;;;5.70;4.20;;;25.00;61.40;;;;;;4979716;28;20797;-77
2021/09/04 11:34:49;;;;;;;5.03;3.97;;;25.20;62.10;;;;;;4990571;28;20038;-77
2021/09/04 11:37:32;;;;;;;6.13;4.55;;;25.30;59.60;;;;;;4992119;28;20037;-77
2021/09/04 11:40:10;;;;;;;5.30;3.70;;;25.20;59.50;;;;;;4989504;28;20031;-77
2021/09/04 11:42:39;;;;;;;5.88;4.30;;;25.40;59.80;;;;;;4976420;28;20035;-76
2021/09/04 11:45:08;;;;;;;5.40;3.47;;;25.40;59.90;;;;;;4976775;28;20035;-78
2021/09/04 11:47:37;;;;;;;11.43;6.20;;;25.70;61.00;;;;;;4975535;28;20031;-76
2021/09/04 11:50:06;;;;;;;5.00;3.70;;;26.20;58.80;;;;;;4989301;28;20022;-79
2021/09/04 11:52:40;;;;;;;4.50;3.70;;;26.30;58.40;;;;;;4990794;28;20138;-81
2021/09/04 11:55:16;;;;;;;6.35;4.05;;;26.80;58.50;;;;;;4980769;28;20049;-84
2021/09/04 11:57:53;;;;;;;4.25;3.40;;;26.70;55.80;;;;;;4996543;28;20030;-78
2021/09/04 12:00:30;;;;;;;5.20;3.67;;;26.30;56.60;;;;;;4987377;28;20042;-81
2021/09/04 12:03:13;;;;;;;5.28;3.22;;;26.20;56.70;;;;;;4980559;28;20037;-80
2021/09/04 12:05:45;;;;;;;4.07;3.50;;;26.40;57.50;;;;;;4990554;28;20400;-80
2021/09/04 12:08:21;;;;;;;6.18;3.80;;;26.50;55.80;;;;;;4977159;28;20031;-79
2021/09/04 12:10:47;;;;;;;3.83;3.15;;;26.50;56.40;;;;;;4999140;28;20047;-80
2021/09/04 12:13:18;;;;;;;5.30;3.40;;;26.90;56.50;;;;;;5001598;28;20022;-80
2021/09/04 12:15:44;;;;;;;5.47;3.55;;;27.00;56.50;;;;;;4988654;28;20026;-76
2021/09/04 12:18:11;;;;;;;4.90;3.90;;;27.20;54.90;;;;;;5011385;28;20037;-81
2021/09/04 12:20:45;;;;;;;5.82;3.65;;;27.00;55.10;;;;;;4998610;28;20049;-81
2021/09/04 12:23:14;;;;;;;3.78;3.17;;;27.30;55.50;;;;;;4999862;28;20037;-82
2021/09/04 12:25:41;;;;;;;5.30;3.35;;;27.20;53.80;;;;;;5005871;28;20031;-83
2021/09/04 12:28:10;;;;;;;4.93;3.67;;;27.10;54.10;;;;;;4995171;28;20038;-80
2021/09/04 12:31:06;;;;;;;4.13;3.33;;;26.70;54.00;;;;;;4995647;28;20035;-82
2021/09/04 12:33:50;;;;;;;5.45;3.35;;;26.80;53.90;;;;;;5014914;28;20032;-82
2021/09/04 12:36:17;;;;;;;6.93;4.05;;;26.70;53.90;;;;;;4990309;28;20046;-82
2021/09/04 12:38:46;;;;;;;4.25;3.33;;;26.60;54.30;;;;;;5001109;28;20030;-74
2021/09/04 12:41:17;;;;;;;5.43;3.95;;;27.10;54.60;;;;;;5012091;28;20034;-82
2021/09/04 12:43:53;;;;;;;5.43;3.65;;;27.00;55.40;;;;;;4983521;28;20037;-75